Time;durP1;ratioP1;P1;durP2;ratioP2;P2;SDS_P1;SDS_P2;PMS_P1;PMS_P2;Temp;Humidity;BMP_temperature;BMP_pressure;BME280_temperature;BME280_humidity;BME280_pressure;Samples;Min_cycle;Max_cycle;Signal;HPM_P1;HPM_P2
2021/06/20 00:00:52;;;;;;;12.43;6.93;;;23.20;99.90;;;;;;5072593;28;20519;-70
2021/06/20 00:03:18;;;;;;;10.50;7.15;;;23.20;99.90;;;;;;5074474;28;20039;-70
2021/06/20 00:05:51;;;;;;;10.18;6.75;;;23.20;99.90;;;;;;5073933;28;20527;-70
2021/06/20 00:08:16;;;;;;;12.55;6.80;;;23.20;99.90;;;;;;5084646;28;20115;-68
2021/06/20 00:10:43;;;;;;;13.57;6.80;;;23.20;99.90;;;;;;5071408;28;20428;-69
2021/06/20 00:13:09;;;;;;;9.52;6.60;;;23.20;99.90;;;;;;5072050;28;20016;-69
2021/06/20 00:15:36;;;;;;;10.55;7.20;;;23.20;99.90;;;;;;5071761;28;20032;-70
2021/06/20 00:18:03;;;;;;;10.68;6.80;;;23.20;99.90;;;;;;5071822;28;20029;-69
2021/06/20 00:20:33;;;;;;;8.38;6.28;;;23.20;99.90;;;;;;5076114;28;20392;-69
2021/06/20 00:22:59;;;;;;;8.13;6.60;;;23.20;99.90;;;;;;5075355;28;20116;-69
2021/06/20 00:25:25;;;;;;;8.82;6.18;;;23.20;99.90;;;;;;5070252;28;20547;-68
2021/06/20 00:27:51;;;;;;;10.20;6.57;;;23.20;99.90;;;;;;5072049;28;20115;-68
2021/06/20 00:30:20;;;;;;;11.02;6.85;;;23.20;99.90;;;;;;5071794;28;20033;-69
2021/06/20 00:32:46;;;;;;;11.07;6.70;;;23.20;99.90;;;;;;5071397;28;20020;-70
2021/06/20 00:35:13;;;;;;;7.93;6.50;;;23.20;99.90;;;;;;5082658;28;20032;-68
2021/06/20 00:37:39;;;;;;;10.00;6.68;;;23.30;99.90;;;;;;5082068;28;20484;-68
2021/06/20 00:40:06;;;;;;;7.90;6.43;;;23.20;99.90;;;;;;5071333;28;20055;-69
2021/06/20 00:42:33;;;;;;;7.10;6.13;;;23.20;99.90;;;;;;5071377;28;20472;-68
2021/06/20 00:44:58;;;;;;;7.65;6.55;;;23.20;99.90;;;;;;5071829;28;20483;-69
2021/06/20 00:47:24;;;;;;;7.82;6.88;;;23.20;99.90;;;;;;5076063;28;20020;-70
2021/06/20 00:49:50;;;;;;;7.40;6.38;;;23.30;99.90;;;;;;5076721;28;20453;-69
2021/06/20 00:52:18;;;;;;;7.38;5.80;;;23.20;99.90;;;;;;5075323;28;20528;-69
2021/06/20 00:54:47;;;;;;;6.78;6.07;;;23.20;99.90;;;;;;5091877;28;20477;-69
2021/06/20 00:57:18;;;;;;;8.35;6.07;;;23.20;99.90;;;;;;5082731;28;20047;-69
2021/06/20 00:59:45;;;;;;;8.00;6.53;;;23.30;99.90;;;;;;5090397;28;20077;-69
2021/06/20 01:02:12;;;;;;;6.80;6.07;;;23.20;99.90;;;;;;5077650;28;20031;-69
2021/06/20 01:04:39;;;;;;;7.65;6.57;;;23.30;99.90;;;;;;5075057;28;20107;-68
2021/06/20 01:07:05;;;;;;;7.35;6.07;;;23.30;99.90;;;;;;5076233;28;20113;-68
2021/06/20 01:09:31;;;;;;;9.38;6.28;;;23.30;99.90;;;;;;5078852;28;20190;-68
2021/06/20 01:11:57;;;;;;;7.75;6.57;;;23.30;99.90;;;;;;5071121;28;20524;-68
2021/06/20 01:14:23;;;;;;;7.22;6.32;;;23.30;99.90;;;;;;5071546;28;20013;-68
2021/06/20 01:16:53;;;;;;;8.13;6.07;;;23.30;99.90;;;;;;5079802;28;20032;-68
2021/06/20 01:19:19;;;;;;;7.05;6.13;;;23.30;99.90;;;;;;5077380;28;20108;-68
2021/06/20 01:21:45;;;;;;;7.53;6.07;;;23.30;99.90;;;;;;5082178;28;20097;-68
2021/06/20 01:24:11;;;;;;;7.40;6.57;;;23.30;99.90;;;;;;5089363;28;20020;-68
2021/06/20 01:26:36;;;;;;;6.60;5.90;;;23.30;99.90;;;;;;5088824;28;20074;-68
2021/06/20 01:29:04;;;;;;;7.05;6.30;;;23.30;99.90;;;;;;5062653;28;20048;-68
2021/06/20 01:31:32;;;;;;;6.75;6.05;;;23.40;99.90;;;;;;5072833;28;20174;-68
2021/06/20 01:33:58;;;;;;;7.05;6.18;;;23.40;99.90;;;;;;5074040;28;20029;-69
2021/06/20 01:36:24;;;;;;;7.05;6.20;;;23.30;99.90;;;;;;5093090;28;20110;-68
2021/06/20 01:38:50;;;;;;;6.95;5.82;;;23.40;99.90;;;;;;5077810;28;20063;-68
2021/06/20 01:41:16;;;;;;;6.90;6.20;;;23.40;99.90;;;;;;5074703;28;20024;-68
2021/06/20 01:43:41;;;;;;;7.30;6.18;;;23.40;99.90;;;;;;5074898;28;20108;-68
2021/06/20 01:46:07;;;;;;;6.80;6.00;;;23.40;99.90;;;;;;5074941;28;20020;-68
2021/06/20 01:48:33;;;;;;;7.32;6.13;;;23.40;99.90;;;;;;5089863;28;20034;-68
2021/06/20 01:50:59;;;;;;;6.22;5.63;;;23.40;99.90;;;;;;5080202;28;20063;-68
2021/06/20 01:53:24;;;;;;;6.47;5.88;;;23.40;99.90;;;;;;5074279;28;20024;-68
2021/06/20 01:55:50;;;;;;;6.80;6.00;;;23.40;99.90;;;;;;5075011;28;20329;-67
2021/06/20 01:58:17;;;;;;;6.97;6.28;;;23.40;99.90;;;;;;5090882;28;20097;-68
2021/06/20 02:00:45;;;;;;;6.63;5.95;;;23.40;99.90;;;;;;5087992;28;20031;-68
2021/06/20 02:03:29;;;;;;;6.80;6.20;;;23.40;99.90;;;;;;5075495;28;20028;-68
2021/06/20 02:06:00;;;;;;;6.20;5.63;;;23.40;99.90;;;;;;5076224;28;20025;-68
2021/06/20 02:08:27;;;;;;;6.63;6.03;;;23.50;99.90;;;;;;5087787;28;20025;-70
2021/06/20 02:10:55;;;;;;;6.35;5.85;;;23.50;99.90;;;;;;5083420;28;20032;-70
2021/06/20 02:13:23;;;;;;;6.50;5.75;;;23.50;99.90;;;;;;5080504;28;20020;-70
2021/06/20 02:15:51;;;;;;;5.97;5.47;;;23.50;99.90;;;;;;5094787;28;20375;-70
2021/06/20 02:18:17;;;;;;;6.10;5.50;;;23.50;99.90;;;;;;5080253;28;20028;-70
2021/06/20 02:20:42;;;;;;;6.18;5.57;;;23.50;99.90;;;;;;5073944;28;20387;-70
2021/06/20 02:23:08;;;;;;;6.40;5.80;;;23.50;99.90;;;;;;5074231;28;20362;-70
2021/06/20 02:25:34;;;;;;;6.15;5.60;;;23.50;99.90;;;;;;5073901;28;20071;-70
2021/06/20 02:28:00;;;;;;;6.53;5.90;;;23.50;99.90;;;;;;5088885;28;20491;-69
2021/06/20 02:30:26;;;;;;;7.25;6.55;;;23.60;99.90;;;;;;5094149;28;20043;-69
2021/06/20 02:32:52;;;;;;;6.38;5.78;;;23.60;99.90;;;;;;5074929;28;20422;-69
2021/06/20 02:35:19;;;;;;;9.20;5.90;;;23.60;99.90;;;;;;5073938;28;20059;-69
2021/06/20 02:37:46;;;;;;;6.57;5.97;;;23.60;99.90;;;;;;5073660;28;20107;-69
2021/06/20 02:40:13;;;;;;;6.50;5.90;;;23.60;99.90;;;;;;5077413;28;20032;-70
2021/06/20 02:42:39;;;;;;;6.65;5.95;;;23.60;99.90;;;;;;5073083;28;20056;-70
2021/06/20 02:45:08;;;;;;;6.35;5.78;;;23.60;99.90;;;;;;5073932;28;20104;-70
2021/06/20 02:47:33;;;;;;;6.15;5.55;;;23.60;99.90;;;;;;5074457;28;20153;-70
2021/06/20 02:49:59;;;;;;;6.22;5.65;;;23.60;99.90;;;;;;5075817;28;20489;-69
2021/06/20 02:52:25;;;;;;;6.35;5.80;;;23.60;99.90;;;;;;5079884;28;20499;-69
2021/06/20 02:54:51;;;;;;;6.47;5.80;;;23.60;99.90;;;;;;5073984;28;20033;-69
2021/06/20 02:57:18;;;;;;;6.45;5.82;;;23.60;99.90;;;;;;5079808;28;20031;-69
2021/06/20 02:59:45;;;;;;;6.10;5.50;;;23.60;99.90;;;;;;5071983;28;20048;-70
2021/06/20 03:02:10;;;;;;;5.85;5.25;;;23.60;99.90;;;;;;5073461;28;20365;-70
2021/06/20 03:04:36;;;;;;;6.13;5.55;;;23.60;99.90;;;;;;5077415;28;20028;-70
2021/06/20 03:07:05;;;;;;;6.72;6.10;;;23.60;99.90;;;;;;5073359;28;20492;-70
2021/06/20 03:09:31;;;;;;;6.25;5.72;;;23.60;99.90;;;;;;5072638;28;20137;-70
2021/06/20 03:11:57;;;;;;;7.78;6.28;;;23.60;99.90;;;;;;5081986;28;20115;-69
2021/06/20 03:14:22;;;;;;;6.15;5.43;;;23.60;99.90;;;;;;5080772;28;20047;-68
2021/06/20 03:16:48;;;;;;;5.93;5.43;;;23.60;99.90;;;;;;5092879;28;20028;-68
2021/06/20 03:19:14;;;;;;;7.00;5.82;;;23.60;99.90;;;;;;5076709;28;20033;-68
2021/06/20 03:21:41;;;;;;;6.55;5.95;;;23.60;99.90;;;;;;5085152;28;20518;-68
2021/06/20 03:24:07;;;;;;;6.45;5.85;;;23.60;99.90;;;;;;5073061;28;20487;-68
2021/06/20 03:26:33;;;;;;;6.70;6.10;;;23.60;99.90;;;;;;5072625;28;20021;-68
2021/06/20 03:29:00;;;;;;;6.25;5.65;;;23.60;99.90;;;;;;5072838;28;20020;-67
2021/06/20 03:31:26;;;;;;;7.00;6.30;;;23.60;99.90;;;;;;5073739;28;20020;-68
2021/06/20 03:33:52;;;;;;;6.25;5.75;;;23.70;99.90;;;;;;5081647;28;20021;-67
2021/06/20 03:36:18;;;;;;;7.47;5.70;;;23.60;99.90;;;;;;5090271;28;20099;-68
2021/06/20 03:38:44;;;;;;;5.90;5.03;;;23.60;99.90;;;;;;5092980;28;20598;-68
2021/06/20 03:41:10;;;;;;;6.43;5.82;;;23.60;99.90;;;;;;5085732;28;20025;-68
2021/06/20 03:43:37;;;;;;;6.20;5.65;;;23.60;99.90;;;;;;5072468;28;20473;-68
2021/06/20 03:46:03;;;;;;;6.22;5.65;;;23.60;99.90;;;;;;5052652;28;20503;-68
2021/06/20 03:48:28;;;;;;;6.40;5.80;;;23.60;99.90;;;;;;5088879;28;20063;-68
2021/06/20 03:50:54;;;;;;;6.20;5.68;;;23.60;99.90;;;;;;5073537;28;20381;-68
2021/06/20 03:53:19;;;;;;;6.35;5.75;;;23.60;99.90;;;;;;5072059;28;20023;-68
2021/06/20 03:55:45;;;;;;;6.10;5.50;;;23.60;99.90;;;;;;5071979;28;20028;-68
2021/06/20 03:58:11;;;;;;;6.72;6.18;;;23.60;99.90;;;;;;5086990;28;20024;-68
2021/06/20 04:00:37;;;;;;;6.68;6.07;;;23.60;99.90;;;;;;5092188;28;20031;-68
2021/06/20 04:03:04;;;;;;;6.13;5.53;;;23.60;99.90;;;;;;5092659;28;20024;-68
2021/06/20 04:05:30;;;;;;;6.38;5.70;;;23.60;99.90;;;;;;5084828;28;20035;-68
2021/06/20 04:07:56;;;;;;;7.03;6.32;;;23.60;99.90;;;;;;5078608;28;20030;-68
2021/06/20 04:10:21;;;;;;;6.85;6.15;;;23.60;99.90;;;;;;5073348;28;20044;-68
2021/06/20 04:12:47;;;;;;;6.70;6.00;;;23.60;99.90;;;;;;5092304;28;20452;-68
2021/06/20 04:15:13;;;;;;;6.85;6.25;;;23.60;99.90;;;;;;5092425;28;20024;-68
2021/06/20 04:17:38;;;;;;;6.47;5.90;;;23.60;99.90;;;;;;5083865;28;20028;-69
2021/06/20 04:20:11;;;;;;;7.25;6.40;;;23.60;99.90;;;;;;5074298;28;20028;-69
2021/06/20 04:22:37;;;;;;;7.13;6.53;;;23.60;99.90;;;;;;5080559;28;20464;-69
2021/06/20 04:25:04;;;;;;;7.30;6.60;;;23.60;99.90;;;;;;5071927;28;20028;-69
2021/06/20 04:27:29;;;;;;;7.93;6.68;;;23.70;99.90;;;;;;5071670;28;20017;-70
2021/06/20 04:29:55;;;;;;;6.82;6.13;;;23.60;99.90;;;;;;5080951;28;20044;-68
2021/06/20 04:32:20;;;;;;;7.03;6.43;;;23.60;99.90;;;;;;5091410;28;20032;-70
2021/06/20 04:34:46;;;;;;;6.50;5.85;;;23.70;99.90;;;;;;5091003;28;20039;-70
2021/06/20 04:37:12;;;;;;;6.88;6.28;;;23.70;99.90;;;;;;5091300;28;20032;-70
2021/06/20 04:39:37;;;;;;;7.07;6.47;;;23.70;99.90;;;;;;5083640;28;20021;-69
2021/06/20 04:42:06;;;;;;;6.68;6.07;;;23.70;99.90;;;;;;5070404;28;20036;-70
2021/06/20 04:44:47;;;;;;;6.88;6.18;;;23.70;99.90;;;;;;5071459;28;20032;-70
2021/06/20 04:47:18;;;;;;;6.55;5.95;;;23.70;99.90;;;;;;5072446;28;20028;-70
2021/06/20 04:49:45;;;;;;;6.50;5.90;;;23.70;99.90;;;;;;5077413;28;20036;-69
2021/06/20 04:52:12;;;;;;;6.93;6.22;;;23.70;99.90;;;;;;5072117;28;20443;-69
2021/06/20 04:54:49;;;;;;;7.25;6.55;;;23.70;99.90;;;;;;5071413;28;20081;-70
2021/06/20 04:57:23;;;;;;;7.30;6.60;;;23.70;99.90;;;;;;5080139;28;20040;-69
2021/06/20 04:59:51;;;;;;;6.90;6.25;;;23.80;99.90;;;;;;5091259;28;20039;-68
2021/06/20 05:02:17;;;;;;;6.97;6.28;;;23.80;99.90;;;;;;5070296;28;20025;-68
2021/06/20 05:04:43;;;;;;;7.18;6.47;;;23.90;99.90;;;;;;5072185;28;20025;-68
2021/06/20 05:07:10;;;;;;;7.20;6.50;;;23.90;99.90;;;;;;5075408;28;20103;-69
2021/06/20 05:09:36;;;;;;;7.32;6.63;;;23.90;99.90;;;;;;5070561;28;20044;-69
2021/06/20 05:12:03;;;;;;;7.22;6.60;;;24.00;99.90;;;;;;5071287;28;20035;-69
2021/06/20 05:14:29;;;;;;;7.38;6.68;;;24.00;99.90;;;;;;5071102;28;20060;-69
2021/06/20 05:16:54;;;;;;;7.25;6.55;;;24.10;99.90;;;;;;5072352;28;20067;-69
2021/06/20 05:19:20;;;;;;;7.38;6.68;;;24.10;99.90;;;;;;5070229;28;20032;-69
2021/06/20 05:21:46;;;;;;;7.07;6.38;;;24.10;99.90;;;;;;5073360;28;20028;-69
2021/06/20 05:24:13;;;;;;;7.28;6.68;;;24.20;99.90;;;;;;5071354;28;20111;-69
2021/06/20 05:26:39;;;;;;;7.30;6.65;;;24.20;99.90;;;;;;5082616;28;20032;-69
2021/06/20 05:29:05;;;;;;;7.45;6.70;;;24.20;99.90;;;;;;5089528;28;20035;-69
2021/06/20 05:31:30;;;;;;;7.25;6.55;;;24.20;99.90;;;;;;5076025;28;20082;-70
2021/06/20 05:33:56;;;;;;;7.53;6.80;;;24.30;99.90;;;;;;5069854;28;20472;-70
2021/06/20 05:36:21;;;;;;;7.60;6.80;;;24.30;99.90;;;;;;5072440;28;20020;-70
2021/06/20 05:38:47;;;;;;;7.57;6.88;;;24.40;99.90;;;;;;5070940;28;20181;-70
2021/06/20 05:41:13;;;;;;;8.18;7.38;;;24.40;99.90;;;;;;5072115;28;20037;-70
2021/06/20 05:43:39;;;;;;;8.23;7.18;;;24.40;99.90;;;;;;5071875;28;20036;-70
2021/06/20 05:46:05;;;;;;;8.68;7.55;;;24.40;99.90;;;;;;5071916;28;20028;-69
2021/06/20 05:48:30;;;;;;;7.75;7.05;;;24.50;99.90;;;;;;5086024;28;20069;-70
2021/06/20 05:50:56;;;;;;;7.60;6.68;;;24.50;99.90;;;;;;5081028;28;20044;-68
2021/06/20 05:53:22;;;;;;;7.97;7.20;;;24.50;99.90;;;;;;5071186;28;20021;-68
2021/06/20 05:55:48;;;;;;;8.35;7.55;;;24.50;99.90;;;;;;5070604;28;20157;-67
2021/06/20 05:58:14;;;;;;;8.02;7.25;;;24.60;99.90;;;;;;5080665;28;20060;-68
2021/06/20 06:00:40;;;;;;;8.05;7.30;;;24.60;99.90;;;;;;5077229;28;20020;-67
2021/06/20 06:03:05;;;;;;;8.40;7.03;;;24.70;99.90;;;;;;5070655;28;20020;-68
2021/06/20 06:05:31;;;;;;;8.30;7.50;;;24.70;99.90;;;;;;5071381;28;20028;-70
2021/06/20 06:07:57;;;;;;;7.55;6.85;;;24.80;99.90;;;;;;5080642;28;20116;-69
2021/06/20 06:10:23;;;;;;;11.00;8.20;;;24.90;99.90;;;;;;5085390;28;20127;-70
2021/06/20 06:12:51;;;;;;;8.85;7.95;;;24.80;99.90;;;;;;5061724;28;20020;-69
2021/06/20 06:15:17;;;;;;;9.05;7.93;;;24.90;99.90;;;;;;5070810;28;20104;-70
2021/06/20 06:17:43;;;;;;;9.20;8.18;;;24.80;99.90;;;;;;5077347;28;20024;-69
2021/06/20 06:20:10;;;;;;;8.65;7.35;;;24.80;99.90;;;;;;5078562;28;20024;-70
2021/06/20 06:22:36;;;;;;;7.93;7.07;;;24.90;99.90;;;;;;5084458;28;20530;-69
2021/06/20 06:25:03;;;;;;;8.93;7.93;;;24.90;99.90;;;;;;5073853;28;20115;-70
2021/06/20 06:27:29;;;;;;;14.43;7.80;;;24.90;99.90;;;;;;5070247;28;20071;-70
2021/06/20 06:29:55;;;;;;;7.68;6.65;;;24.90;99.90;;;;;;5067806;28;20722;-69
2021/06/20 06:32:20;;;;;;;8.02;6.78;;;24.90;99.90;;;;;;5074669;28;20509;-70
2021/06/20 06:34:46;;;;;;;8.98;6.78;;;24.90;99.90;;;;;;5078958;28;20399;-70
2021/06/20 06:37:12;;;;;;;8.27;6.80;;;24.90;99.90;;;;;;5075136;28;20425;-71
2021/06/20 06:39:38;;;;;;;7.13;6.50;;;24.90;99.90;;;;;;5078788;28;20025;-70
2021/06/20 06:42:04;;;;;;;8.13;6.47;;;24.90;99.90;;;;;;5078622;28;20030;-68
2021/06/20 06:44:30;;;;;;;7.47;6.47;;;24.90;99.90;;;;;;5079060;28;20032;-66
2021/06/20 06:46:56;;;;;;;8.23;6.30;;;24.90;99.90;;;;;;5076488;28;20046;-68
2021/06/20 06:49:21;;;;;;;6.60;5.70;;;24.90;99.90;;;;;;5076720;28;20024;-68
2021/06/20 06:51:48;;;;;;;6.60;5.95;;;24.90;99.90;;;;;;5078576;28;20032;-69
2021/06/20 06:54:17;;;;;;;6.20;5.60;;;24.90;99.90;;;;;;5078938;28;20040;-69
2021/06/20 06:56:43;;;;;;;7.45;6.03;;;24.90;99.90;;;;;;5075472;28;20080;-67
2021/06/20 06:59:09;;;;;;;6.30;5.63;;;24.90;99.90;;;;;;5077581;28;20021;-67
2021/06/20 07:01:34;;;;;;;5.97;5.38;;;24.90;99.90;;;;;;5074577;28;20112;-65
2021/06/20 07:04:00;;;;;;;5.88;5.28;;;24.90;99.90;;;;;;5071641;28;20153;-68
2021/06/20 07:06:26;;;;;;;5.50;4.93;;;24.90;99.90;;;;;;5077808;28;20048;-68
2021/06/20 07:08:52;;;;;;;5.18;4.43;;;24.90;99.90;;;;;;5075152;28;20100;-68
2021/06/20 07:11:18;;;;;;;5.50;4.47;;;24.90;99.90;;;;;;5078614;28;20472;-69
2021/06/20 07:13:44;;;;;;;5.10;4.47;;;24.90;99.90;;;;;;5079784;28;20316;-68
2021/06/20 07:16:09;;;;;;;5.10;4.35;;;24.90;99.90;;;;;;5076197;28;20095;-68
2021/06/20 07:18:35;;;;;;;5.82;4.90;;;24.90;99.90;;;;;;5076276;28;20025;-68
2021/06/20 07:21:02;;;;;;;7.00;4.45;;;24.90;99.90;;;;;;5072245;28;20474;-68
2021/06/20 07:23:27;;;;;;;4.43;3.97;;;24.90;99.90;;;;;;5075017;28;20024;-68
2021/06/20 07:25:53;;;;;;;6.00;4.05;;;24.90;99.90;;;;;;5070845;28;20031;-68
2021/06/20 07:28:19;;;;;;;5.72;4.18;;;24.90;99.90;;;;;;5067488;28;20389;-67
2021/06/20 07:30:51;;;;;;;5.43;3.60;;;24.90;99.90;;;;;;5066676;28;20051;-68
2021/06/20 07:33:22;;;;;;;4.47;4.07;;;25.00;99.90;;;;;;5067925;28;20028;-68
2021/06/20 07:35:57;;;;;;;4.20;3.80;;;25.00;99.90;;;;;;5066990;28;20388;-68
2021/06/20 07:38:22;;;;;;;3.85;3.35;;;25.00;99.90;;;;;;5067654;28;20033;-68
2021/06/20 07:40:48;;;;;;;4.22;3.40;;;25.00;99.90;;;;;;5066653;28;20028;-68
2021/06/20 07:43:14;;;;;;;6.35;3.67;;;25.10;99.90;;;;;;5068777;28;20056;-67
2021/06/20 07:45:40;;;;;;;3.58;3.25;;;25.10;99.90;;;;;;5066298;28;20086;-69
2021/06/20 07:48:06;;;;;;;6.80;3.55;;;25.10;99.90;;;;;;5067760;28;20024;-68
2021/06/20 07:50:33;;;;;;;4.32;2.83;;;25.10;99.90;;;;;;5065907;28;20024;-68
2021/06/20 07:52:58;;;;;;;5.70;2.83;;;25.10;99.90;;;;;;5066885;28;20024;-67
2021/06/20 07:55:24;;;;;;;4.88;3.25;;;25.10;99.90;;;;;;5067425;28;20107;-68
2021/06/20 07:57:50;;;;;;;3.05;2.70;;;25.10;99.90;;;;;;5067391;28;20047;-67
2021/06/20 08:00:16;;;;;;;4.80;2.90;;;25.20;99.90;;;;;;5066131;28;20068;-67
2021/06/20 08:02:42;;;;;;;5.30;2.72;;;25.20;99.90;;;;;;5066103;28;20036;-67
2021/06/20 08:05:08;;;;;;;3.47;2.72;;;25.20;99.90;;;;;;5067497;28;20036;-67
2021/06/20 08:07:34;;;;;;;3.92;2.78;;;25.20;99.90;;;;;;5071892;28;20111;-68
2021/06/20 08:10:00;;;;;;;3.45;2.70;;;25.30;99.90;;;;;;5080352;28;20058;-69
2021/06/20 08:12:26;;;;;;;2.92;2.63;;;25.30;99.90;;;;;;5078480;28;20488;-68
2021/06/20 08:14:52;;;;;;;3.00;2.60;;;25.30;99.90;;;;;;5080357;28;20066;-67
2021/06/20 08:17:18;;;;;;;3.83;2.60;;;25.30;99.90;;;;;;5076087;28;20107;-67
2021/06/20 08:19:44;;;;;;;3.67;2.38;;;25.30;99.90;;;;;;5077211;28;20122;-68
2021/06/20 08:22:10;;;;;;;3.63;2.60;;;25.20;99.90;;;;;;5077832;28;20043;-69
2021/06/20 08:24:37;;;;;;;2.78;2.58;;;25.30;99.90;;;;;;5076693;28;20016;-68
2021/06/20 08:27:03;;;;;;;3.17;2.70;;;25.30;99.90;;;;;;5084931;28;20032;-68
2021/06/20 08:29:29;;;;;;;3.45;2.30;;;25.30;99.90;;;;;;5076905;28;20103;-69
2021/06/20 08:31:55;;;;;;;5.80;2.50;;;25.30;99.90;;;;;;5075746;28;20440;-71
2021/06/20 08:34:21;;;;;;;3.80;2.00;;;25.10;99.90;;;;;;5076632;28;20043;-69
2021/06/20 08:36:47;;;;;;;3.38;2.03;;;24.90;99.90;;;;;;5077240;28;20024;-72
2021/06/20 08:39:13;;;;;;;4.82;2.13;;;24.80;99.90;;;;;;5075176;28;20483;-70
2021/06/20 08:41:41;;;;;;;7.15;2.25;;;24.80;99.90;;;;;;5077111;28;20033;-71
2021/06/20 08:44:28;;;;;;;5.38;2.20;;;24.70;99.90;;;;;;5072983;28;20066;-72
2021/06/20 08:46:55;;;;;;;9.82;2.88;;;24.90;99.90;;;;;;5077313;28;20027;-67
2021/06/20 08:49:22;;;;;;;8.75;2.40;;;24.90;99.90;;;;;;5080871;28;20013;-69
2021/06/20 08:51:50;;;;;;;8.00;2.78;;;24.80;99.90;;;;;;5074128;28;20491;-72
2021/06/20 08:54:16;;;;;;;14.55;10.45;;;24.70;99.90;;;;;;5076097;28;20021;-71
2021/06/20 08:56:42;;;;;;;8.35;3.53;;;24.60;99.90;;;;;;5085781;28;20024;-69
2021/06/20 08:59:10;;;;;;;6.47;2.72;;;24.50;99.90;;;;;;5084489;28;20027;-70
2021/06/20 09:01:36;;;;;;;5.38;2.60;;;24.50;99.90;;;;;;5087017;28;20077;-70
2021/06/20 09:04:02;;;;;;;11.43;3.05;;;24.50;99.90;;;;;;5079551;28;20025;-70
2021/06/20 09:06:28;;;;;;;10.55;3.28;;;24.60;99.90;;;;;;5081730;28;20029;-70
2021/06/20 09:08:58;;;;;;;18.52;3.30;;;24.60;99.90;;;;;;5080929;28;20030;-70
2021/06/20 09:11:32;;;;;;;7.22;2.92;;;24.40;99.90;;;;;;5071279;28;20527;-70
2021/06/20 09:14:03;;;;;;;5.25;2.70;;;24.20;99.90;;;;;;5071430;28;20523;-70
2021/06/20 09:16:29;;;;;;;6.28;2.60;;;24.20;99.90;;;;;;5060013;28;20051;-69
2021/06/20 09:18:55;;;;;;;6.43;2.70;;;24.20;99.90;;;;;;5071499;28;20020;-75
2021/06/20 09:21:24;;;;;;;7.40;2.53;;;24.20;99.90;;;;;;5070756;28;20039;-75
2021/06/20 09:23:55;;;;;;;4.50;2.38;;;24.10;99.90;;;;;;5069951;28;20496;-75
2021/06/20 09:26:34;;;;;;;5.65;2.60;;;24.00;99.90;;;;;;5070394;28;20035;-73
2021/06/20 09:29:00;;;;;;;3.55;2.63;;;24.00;99.90;;;;;;5070653;28;20027;-75
2021/06/20 09:31:26;;;;;;;4.03;2.17;;;23.90;99.90;;;;;;5070181;28;20372;-76
2021/06/20 09:34:00;;;;;;;3.72;2.03;;;23.90;99.90;;;;;;5075797;28;20545;-74
2021/06/20 09:36:29;;;;;;;3.28;1.83;;;23.80;99.90;;;;;;5078742;28;20032;-75
2021/06/20 09:38:55;;;;;;;3.63;2.15;;;23.80;99.90;;;;;;5075283;28;20419;-78
2021/06/20 09:41:21;;;;;;;4.68;2.13;;;23.80;99.90;;;;;;5071331;28;20094;-76
2021/06/20 09:43:57;;;;;;;4.63;2.10;;;23.80;99.90;;;;;;5071867;28;20070;-80
2021/06/20 09:46:23;;;;;;;6.20;2.42;;;23.90;99.90;;;;;;5072057;28;20035;-71
2021/06/20 09:48:50;;;;;;;3.83;2.50;;;24.10;99.90;;;;;;5072488;28;20086;-73
2021/06/20 09:51:19;;;;;;;9.18;3.00;;;24.10;99.90;;;;;;5070929;28;20032;-78
2021/06/20 09:53:47;;;;;;;11.80;3.30;;;24.20;99.90;;;;;;5083129;28;20493;-77
2021/06/20 09:56:30;;;;;;;11.55;3.10;;;24.20;99.90;;;;;;5073455;28;20039;-71
2021/06/20 09:58:55;;;;;;;10.93;3.13;;;24.30;99.90;;;;;;5075888;28;20099;-71
2021/06/20 10:01:21;;;;;;;20.15;3.70;;;24.20;99.90;;;;;;5075888;28;20116;-73
2021/06/20 10:03:47;;;;;;;12.13;3.38;;;24.30;99.90;;;;;;5086038;28;20031;-71
2021/06/20 10:06:14;;;;;;;17.05;3.50;;;24.30;99.90;;;;;;5087869;28;20063;-71
2021/06/20 10:08:41;;;;;;;8.95;3.00;;;24.30;99.90;;;;;;5083295;28;20024;-70
2021/06/20 10:11:07;;;;;;;16.42;2.72;;;24.30;99.90;;;;;;5091844;28;20429;-72
2021/06/20 10:13:33;;;;;;;12.65;2.58;;;24.30;99.90;;;;;;5094477;28;20028;-75
2021/06/20 10:16:20;;;;;;;8.93;2.42;;;24.30;99.90;;;;;;5091848;28;20016;-71
2021/06/20 10:19:10;;;;;;;6.63;2.42;;;24.20;99.90;;;;;;5073347;28;20028;-73
2021/06/20 10:21:38;;;;;;;7.57;2.50;;;24.20;99.90;;;;;;5073225;28;20472;-71
2021/06/20 10:24:05;;;;;;;7.85;2.60;;;24.20;99.90;;;;;;5074904;28;20021;-71
2021/06/20 10:26:32;;;;;;;6.53;2.20;;;24.30;99.90;;;;;;5089345;28;20126;-70
2021/06/20 10:28:58;;;;;;;9.25;2.47;;;24.30;99.90;;;;;;5092770;28;20025;-70
2021/06/20 10:31:33;;;;;;;11.32;2.20;;;24.30;99.90;;;;;;5094491;28;20016;-70
2021/06/20 10:34:15;;;;;;;8.57;2.28;;;24.30;99.90;;;;;;5079911;28;20073;-74
2021/06/20 10:36:48;;;;;;;7.72;2.33;;;24.30;99.90;;;;;;5073571;28;20087;-70
2021/06/20 10:39:14;;;;;;;3.97;2.10;;;24.40;99.90;;;;;;5065757;28;20400;-70
2021/06/20 10:41:40;;;;;;;4.82;2.30;;;24.40;99.90;;;;;;5074494;28;20028;-73
2021/06/20 10:44:06;;;;;;;5.85;1.88;;;24.30;99.90;;;;;;5074612;28;20028;-75
2021/06/20 10:46:32;;;;;;;2.40;1.45;;;24.30;99.90;;;;;;5079047;28;20101;-71
2021/06/20 10:48:59;;;;;;;4.93;1.83;;;24.30;99.90;;;;;;5073591;28;20027;-75
2021/06/20 10:51:25;;;;;;;5.30;1.90;;;24.30;99.90;;;;;;5077717;28;20392;-72
2021/06/20 10:53:51;;;;;;;4.38;1.85;;;24.30;99.90;;;;;;5085118;28;20544;-70
2021/06/20 10:56:26;;;;;;;3.53;1.60;;;24.30;99.90;;;;;;5074325;28;20068;-73
2021/06/20 10:58:54;;;;;;;4.45;1.70;;;24.30;99.90;;;;;;5082452;28;20032;-70
2021/06/20 11:01:21;;;;;;;3.85;1.80;;;24.30;99.90;;;;;;5076488;28;20037;-71
2021/06/20 11:03:53;;;;;;;3.70;1.48;;;24.40;99.90;;;;;;5071224;28;20019;-72
2021/06/20 11:06:24;;;;;;;5.47;1.60;;;24.40;99.90;;;;;;5083585;28;20099;-71
2021/06/20 11:08:53;;;;;;;3.60;1.42;;;24.40;99.90;;;;;;5077927;28;20029;-71
2021/06/20 11:11:27;;;;;;;2.33;1.30;;;24.40;99.90;;;;;;5082423;28;20032;-73
2021/06/20 11:13:55;;;;;;;;;;;24.40;99.90;;;;;;5073508;28;20012;-74
2021/06/20 11:16:39;;;;;;;2.80;1.50;;;24.40;99.90;;;;;;5072122;28;19912;-71
2021/06/20 11:19:05;;;;;;;3.35;1.30;;;24.40;99.90;;;;;;5072814;28;20033;-70
2021/06/20 11:21:31;;;;;;;2.95;1.55;;;24.40;99.90;;;;;;5071419;28;20428;-72
2021/06/20 11:23:57;;;;;;;2.95;1.58;;;24.40;99.90;;;;;;5072011;28;20025;-70
2021/06/20 11:26:22;;;;;;;2.95;1.58;;;24.40;99.90;;;;;;5073663;28;20112;-73
2021/06/20 11:29:21;;;;;;;2.35;1.65;;;24.50;99.90;;;;;;5072217;28;20025;-70
2021/06/20 11:31:54;;;;;;;2.40;1.50;;;24.50;99.90;;;;;;5025962;28;20481;-73
2021/06/20 11:34:22;;;;;;;2.67;1.52;;;24.50;99.90;;;;;;5079209;28;20039;-74
2021/06/20 11:36:47;;;;;;;4.32;1.70;;;24.50;99.90;;;;;;5072475;28;20036;-71
2021/06/20 11:39:15;;;;;;;2.45;1.75;;;24.50;99.90;;;;;;5079643;28;20039;-71
2021/06/20 11:41:42;;;;;;;2.08;1.40;;;24.50;99.90;;;;;;5088194;28;20043;-70
2021/06/20 11:44:08;;;;;;;2.28;1.40;;;24.50;99.90;;;;;;5083563;28;20025;-71
2021/06/20 11:46:34;;;;;;;3.53;1.70;;;24.50;99.90;;;;;;5071276;28;20034;-71
2021/06/20 11:49:05;;;;;;;2.25;1.45;;;24.50;99.90;;;;;;5073322;28;20081;-72
2021/06/20 11:51:32;;;;;;;2.33;1.23;;;24.50;99.90;;;;;;5074753;28;20118;-71
2021/06/20 11:54:09;;;;;;;4.18;1.60;;;24.50;99.90;;;;;;5077145;28;20041;-72
2021/06/20 11:56:35;;;;;;;3.63;1.55;;;24.40;99.90;;;;;;5075814;28;20111;-72
2021/06/20 11:59:01;;;;;;;6.50;4.90;;;24.50;99.90;;;;;;5086803;28;20114;-74
2021/06/20 12:01:56;;;;;;;6.22;5.72;;;24.50;99.90;;;;;;5073572;28;20376;-74
2021/06/20 12:04:25;;;;;;;6.03;5.53;;;24.40;99.90;;;;;;5058558;28;20527;-73
2021/06/20 12:06:51;;;;;;;6.00;5.38;;;24.40;99.90;;;;;;5071821;28;20028;-72
2021/06/20 12:09:17;;;;;;;5.30;4.90;;;24.50;99.90;;;;;;5091694;28;20115;-73
2021/06/20 12:11:44;;;;;;;5.95;4.00;;;24.50;99.90;;;;;;5077682;28;20099;-72
2021/06/20 12:14:24;;;;;;;5.60;4.32;;;24.50;99.90;;;;;;5070142;28;20024;-74
2021/06/20 12:16:52;;;;;;;4.20;3.67;;;24.50;99.90;;;;;;5090342;28;20028;-75
2021/06/20 12:19:19;;;;;;;3.95;3.20;;;24.60;99.90;;;;;;5075061;28;20070;-74
2021/06/20 12:21:48;;;;;;;3.55;3.25;;;24.60;99.90;;;;;;5090637;28;20035;-75
2021/06/20 12:24:14;;;;;;;4.10;2.78;;;24.60;99.90;;;;;;5089149;28;20368;-74
2021/06/20 12:26:52;;;;;;;5.07;3.95;;;24.60;99.90;;;;;;5092033;28;20028;-73
2021/06/20 12:29:19;;;;;;;6.95;4.28;;;24.60;99.90;;;;;;5072505;28;20074;-77
2021/06/20 12:32:15;;;;;;;4.60;4.20;;;24.60;99.90;;;;;;5071689;28;20488;-75
2021/06/20 12:34:41;;;;;;;3.88;3.53;;;24.60;99.90;;;;;;5058854;28;20037;-77
2021/06/20 12:37:07;;;;;;;3.78;3.30;;;24.60;99.90;;;;;;5071140;28;20385;-75
2021/06/20 12:39:44;;;;;;;5.47;3.47;;;24.60;99.90;;;;;;5071110;28;20540;-76
2021/06/20 12:42:11;;;;;;;3.65;3.20;;;24.50;99.90;;;;;;5084129;28;20064;-76
2021/06/20 12:44:42;;;;;;;4.70;3.45;;;24.50;99.90;;;;;;5079412;28;20025;-78
2021/06/20 12:47:08;;;;;;;3.47;3.17;;;24.60;99.90;;;;;;5070278;28;20468;-78